Time;durP1;ratioP1;P1;durP2;ratioP2;P2;SDS_P1;SDS_P2;PMS_P1;PMS_P2;Temp;Humidity;BMP_temperature;BMP_pressure;BME280_temperature;BME280_humidity;BME280_pressure;Samples;Min_cycle;Max_cycle;Signal;HPM_P1;HPM_P2
2024/01/04 00:01:34;;;;;;;3.97;1.20;;;8.10;99.90;;;;;;6282307;22;20015;-77
2024/01/04 00:04:01;;;;;;;3.72;1.60;;;8.10;99.90;;;;;;6281781;22;20071;-78
2024/01/04 00:06:28;;;;;;;4.55;1.52;;;8.10;99.90;;;;;;6255954;22;20023;-77
2024/01/04 00:08:55;;;;;;;4.60;1.60;;;8.20;99.90;;;;;;6281102;22;20503;-77
2024/01/04 00:11:22;;;;;;;4.45;1.40;;;8.20;99.90;;;;;;6230573;22;20102;-77
2024/01/04 00:13:49;;;;;;;7.05;2.10;;;8.20;99.90;;;;;;6280456;22;20019;-76
2024/01/04 00:16:18;;;;;;;4.68;2.55;;;8.30;99.90;;;;;;6280865;22;20027;-77
2024/01/04 00:18:45;;;;;;;5.72;2.72;;;8.30;99.90;;;;;;6255515;22;20019;-77
2024/01/04 00:21:13;;;;;;;7.75;2.78;;;8.30;99.90;;;;;;6230407;22;20353;-77
2024/01/04 00:23:41;;;;;;;7.65;2.50;;;8.30;99.90;;;;;;6255210;22;20023;-77
2024/01/04 00:26:08;;;;;;;5.13;2.22;;;8.30;99.90;;;;;;6255371;22;20019;-77
2024/01/04 00:28:35;;;;;;;4.47;1.92;;;8.30;99.90;;;;;;6255472;22;20026;-77
2024/01/04 00:31:02;;;;;;;7.55;1.90;;;8.30;99.90;;;;;;6280536;22;20468;-78
2024/01/04 00:33:30;;;;;;;3.50;1.52;;;8.30;99.90;;;;;;6255102;22;20031;-77
2024/01/04 00:35:57;;;;;;;3.40;1.52;;;8.30;99.90;;;;;;6280482;22;20026;-77
2024/01/04 00:38:24;;;;;;;2.83;1.10;;;8.30;99.90;;;;;;6281070;22;20019;-78
2024/01/04 00:40:51;;;;;;;2.80;1.25;;;8.20;99.90;;;;;;6254919;22;20023;-78
2024/01/04 00:43:19;;;;;;;6.18;1.50;;;8.30;99.90;;;;;;6305785;22;20441;-78
2024/01/04 00:45:46;;;;;;;3.88;1.10;;;8.30;99.90;;;;;;6254787;22;20026;-78
2024/01/04 00:48:13;;;;;;;4.95;1.60;;;8.20;99.90;;;;;;6306020;22;20070;-77
2024/01/04 00:50:42;;;;;;;3.75;1.58;;;8.20;99.90;;;;;;6280603;22;20433;-77
2024/01/04 00:53:09;;;;;;;3.38;1.50;;;8.20;99.90;;;;;;6255556;22;20027;-77
2024/01/04 00:55:37;;;;;;;6.38;1.63;;;8.20;99.90;;;;;;6280446;22;20082;-77
2024/01/04 00:58:05;;;;;;;4.50;1.35;;;8.20;99.90;;;;;;6305766;22;20024;-77
2024/01/04 01:00:32;;;;;;;3.60;1.45;;;8.20;99.90;;;;;;6280236;22;20019;-77
2024/01/04 01:03:00;;;;;;;5.78;1.48;;;8.20;99.90;;;;;;6280040;22;20349;-77
2024/01/04 01:05:27;;;;;;;2.90;1.20;;;8.30;99.90;;;;;;6280261;22;20057;-77
2024/01/04 01:07:54;;;;;;;3.60;1.70;;;8.20;99.90;;;;;;6279963;22;20456;-77
2024/01/04 01:10:21;;;;;;;2.45;0.80;;;8.20;99.90;;;;;;6229818;22;20353;-77
2024/01/04 01:12:49;;;;;;;3.72;1.20;;;8.20;99.90;;;;;;6254556;22;20076;-77
2024/01/04 01:15:16;;;;;;;4.43;1.10;;;8.20;99.90;;;;;;6254713;22;20024;-76
2024/01/04 01:17:43;;;;;;;4.93;1.48;;;8.20;99.90;;;;;;6254756;22;20114;-77
2024/01/04 01:20:11;;;;;;;5.25;1.80;;;8.20;99.90;;;;;;6306072;22;20015;-77
2024/01/04 01:22:38;;;;;;;4.53;1.95;;;8.20;99.90;;;;;;6254594;22;20030;-77
2024/01/04 01:25:05;;;;;;;4.68;1.50;;;8.20;99.90;;;;;;6254541;22;20094;-77
2024/01/04 01:27:32;;;;;;;4.43;1.33;;;8.20;99.90;;;;;;6307374;22;20026;-77
2024/01/04 01:29:59;;;;;;;4.07;1.33;;;8.20;99.90;;;;;;6280031;22;20019;-77
2024/01/04 01:32:26;;;;;;;5.57;1.85;;;8.20;99.90;;;;;;6229714;22;20027;-77
2024/01/04 01:34:54;;;;;;;5.57;1.80;;;8.20;99.90;;;;;;6255495;22;20024;-77
2024/01/04 01:37:21;;;;;;;4.97;1.73;;;8.20;99.90;;;;;;6256872;22;20052;-77
2024/01/04 01:39:48;;;;;;;5.97;2.08;;;8.20;99.90;;;;;;6281883;22;20023;-76
2024/01/04 01:42:17;;;;;;;6.68;1.95;;;8.20;99.90;;;;;;6256590;22;20050;-76
2024/01/04 01:44:44;;;;;;;4.80;1.98;;;8.10;99.90;;;;;;6257355;22;20015;-77
2024/01/04 01:47:11;;;;;;;6.60;2.17;;;8.10;99.90;;;;;;6231545;22;20015;-76
2024/01/04 01:49:38;;;;;;;5.07;1.90;;;8.10;99.90;;;;;;6281917;22;20082;-76
2024/01/04 01:52:08;;;;;;;6.18;2.33;;;8.10;99.90;;;;;;6257825;22;20068;-76
2024/01/04 01:54:35;;;;;;;6.75;2.05;;;8.10;99.90;;;;;;6281900;22;20023;-76
2024/01/04 01:57:02;;;;;;;5.45;2.10;;;8.10;99.90;;;;;;6281739;22;20027;-77
2024/01/04 01:59:29;;;;;;;5.47;1.83;;;8.20;99.90;;;;;;6256510;22;20023;-76
2024/01/04 02:01:56;;;;;;;5.30;2.28;;;8.20;99.90;;;;;;6281302;22;20540;-77
2024/01/04 02:04:23;;;;;;;4.75;1.77;;;8.20;99.90;;;;;;6281300;22;20495;-77
2024/01/04 02:06:52;;;;;;;5.95;1.73;;;8.20;99.90;;;;;;6257091;22;20023;-77
2024/01/04 02:09:19;;;;;;;5.20;1.77;;;8.20;99.90;;;;;;6256266;22;20110;-76
2024/01/04 02:11:46;;;;;;;4.88;1.58;;;8.20;99.90;;;;;;6283501;22;20504;-77
2024/01/04 02:14:13;;;;;;;4.25;1.67;;;8.20;99.90;;;;;;6286738;22;20022;-77
2024/01/04 02:16:41;;;;;;;7.18;1.70;;;8.10;99.90;;;;;;6261159;22;20018;-76
2024/01/04 02:19:11;;;;;;;10.63;2.00;;;8.20;99.90;;;;;;6262293;22;20399;-77
2024/01/04 02:21:39;;;;;;;4.38;1.52;;;8.20;99.90;;;;;;6287118;22;20094;-77
2024/01/04 02:24:09;;;;;;;4.20;1.67;;;8.20;99.90;;;;;;6262951;22;20353;-77
2024/01/04 02:26:37;;;;;;;6.72;1.63;;;8.20;99.90;;;;;;6286658;22;20463;-76
2024/01/04 02:29:04;;;;;;;5.57;1.58;;;8.20;99.90;;;;;;6312594;22;20011;-77
2024/01/04 02:31:33;;;;;;;5.75;1.33;;;8.20;99.90;;;;;;6313033;22;20508;-77
2024/01/04 02:34:00;;;;;;;4.57;1.45;;;8.20;99.90;;;;;;6286772;22;20352;-77
2024/01/04 02:36:27;;;;;;;8.73;1.48;;;8.10;99.90;;;;;;6261479;22;20410;-77
2024/01/04 02:38:54;;;;;;;4.45;1.33;;;8.10;99.90;;;;;;6261197;22;20356;-77
2024/01/04 02:41:21;;;;;;;7.90;1.67;;;8.10;99.90;;;;;;6287085;22;20034;-77
2024/01/04 02:43:49;;;;;;;7.80;1.80;;;8.10;99.90;;;;;;6312325;22;20023;-76
2024/01/04 02:46:16;;;;;;;3.40;1.30;;;8.10;99.90;;;;;;6286375;22;20026;-76
2024/01/04 02:48:43;;;;;;;3.55;1.38;;;8.10;99.90;;;;;;6311935;22;20417;-76
2024/01/04 02:51:10;;;;;;;6.70;1.42;;;8.10;99.90;;;;;;6312206;22;20014;-76
2024/01/04 02:53:37;;;;;;;3.72;1.48;;;8.10;99.90;;;;;;6311891;22;20014;-76
2024/01/04 02:56:04;;;;;;;4.90;1.38;;;8.20;99.90;;;;;;6260929;22;20348;-76
2024/01/04 02:58:34;;;;;;;5.15;1.05;;;8.10;99.90;;;;;;6261843;22;20023;-76
2024/01/04 03:01:02;;;;;;;5.25;1.33;;;8.10;99.90;;;;;;6312137;22;20025;-76
2024/01/04 03:03:29;;;;;;;5.45;1.38;;;8.10;99.90;;;;;;6286277;22;20030;-76
2024/01/04 03:05:56;;;;;;;10.63;2.15;;;8.10;99.90;;;;;;6286336;22;20049;-76
2024/01/04 03:08:26;;;;;;;6.70;1.98;;;8.10;99.90;;;;;;6286216;22;20065;-76
2024/01/04 03:10:53;;;;;;;4.20;1.38;;;8.10;99.90;;;;;;6286453;22;20116;-76
2024/01/04 03:13:20;;;;;;;8.82;2.20;;;8.10;99.90;;;;;;6311960;22;20026;-76
2024/01/04 03:15:47;;;;;;;5.22;1.80;;;8.10;99.90;;;;;;6312349;22;20019;-76
2024/01/04 03:18:14;;;;;;;7.45;1.88;;;8.10;99.90;;;;;;6286412;22;20026;-75
2024/01/04 03:20:41;;;;;;;6.30;1.98;;;8.10;99.90;;;;;;6286613;22;20061;-76
2024/01/04 03:23:08;;;;;;;6.53;1.98;;;8.10;99.90;;;;;;6286605;22;20047;-76
2024/01/04 03:25:35;;;;;;;6.55;1.63;;;8.10;99.90;;;;;;6286279;22;20019;-76
2024/01/04 03:28:03;;;;;;;4.10;1.05;;;8.20;99.90;;;;;;6286042;22;20022;-76
2024/01/04 03:30:30;;;;;;;6.65;1.80;;;8.10;99.90;;;;;;6285573;22;20010;-75
2024/01/04 03:32:57;;;;;;;5.15;1.73;;;8.20;99.90;;;;;;6260396;22;20014;-76
2024/01/04 03:35:24;;;;;;;6.60;1.83;;;8.20;99.90;;;;;;6311776;22;20384;-76
2024/01/04 03:37:51;;;;;;;5.00;1.50;;;8.20;99.90;;;;;;6311855;22;20046;-76
2024/01/04 03:40:18;;;;;;;5.78;1.40;;;8.20;99.90;;;;;;6286869;22;20022;-76
2024/01/04 03:42:45;;;;;;;5.72;1.73;;;8.10;99.90;;;;;;6322186;22;20026;-75
2024/01/04 03:45:12;;;;;;;6.22;1.50;;;8.20;99.90;;;;;;6286553;22;20391;-76
2024/01/04 03:47:40;;;;;;;7.22;2.13;;;8.20;99.90;;;;;;6286168;22;20456;-76
2024/01/04 03:50:07;;;;;;;3.17;1.00;;;8.20;99.90;;;;;;6286248;22;20349;-76
2024/01/04 03:52:34;;;;;;;6.80;1.80;;;8.20;99.90;;;;;;6286633;22;20015;-76
2024/01/04 03:55:01;;;;;;;5.22;1.52;;;8.20;99.90;;;;;;6285914;22;20045;-76
2024/01/04 03:57:28;;;;;;;5.35;1.40;;;8.20;99.90;;;;;;6286431;22;20023;-76
2024/01/04 03:59:55;;;;;;;2.83;0.98;;;8.20;99.90;;;;;;6286348;22;20101;-76
2024/01/04 04:02:22;;;;;;;4.63;1.75;;;8.20;99.90;;;;;;6260614;22;20022;-76
2024/01/04 04:04:50;;;;;;;4.32;1.50;;;8.20;99.90;;;;;;6285710;22;20019;-76
2024/01/04 04:07:17;;;;;;;5.05;1.30;;;8.20;99.90;;;;;;6338866;22;20026;-76
2024/01/04 04:09:44;;;;;;;5.50;1.23;;;8.20;99.90;;;;;;6311797;22;20019;-76
2024/01/04 04:12:11;;;;;;;5.93;2.05;;;8.20;99.90;;;;;;6306014;22;20016;-76
2024/01/04 04:14:40;;;;;;;5.57;1.63;;;8.10;99.90;;;;;;6255617;22;20057;-76
2024/01/04 04:17:07;;;;;;;5.40;1.35;;;8.10;99.90;;;;;;6306248;22;20413;-75
2024/01/04 04:19:34;;;;;;;4.65;1.38;;;8.10;99.90;;;;;;6306109;22;20081;-76
2024/01/04 04:22:01;;;;;;;4.75;1.52;;;8.20;99.90;;;;;;6280696;22;20019;-75
2024/01/04 04:24:30;;;;;;;2.65;1.17;;;8.10;99.90;;;;;;6280349;22;20116;-75
2024/01/04 04:26:57;;;;;;;4.10;1.25;;;8.20;99.90;;;;;;6307432;22;20011;-76
2024/01/04 04:29:24;;;;;;;3.28;0.98;;;8.20;99.90;;;;;;6306107;22;20045;-75
2024/01/04 04:31:51;;;;;;;3.28;1.33;;;8.10;99.90;;;;;;6307352;22;20503;-75
2024/01/04 04:34:18;;;;;;;3.22;1.17;;;8.10;99.90;;;;;;6229868;22;20019;-75
2024/01/04 04:36:46;;;;;;;2.88;0.95;;;8.10;99.90;;;;;;6254499;22;20116;-75
2024/01/04 04:39:13;;;;;;;3.65;0.98;;;8.10;99.90;;;;;;6280608;22;20091;-75
2024/01/04 04:41:41;;;;;;;2.25;0.80;;;8.20;99.90;;;;;;6254783;22;20027;-75
2024/01/04 04:44:08;;;;;;;3.53;0.80;;;8.20;99.90;;;;;;6305738;22;20011;-75
2024/01/04 04:46:35;;;;;;;3.55;0.80;;;8.20;99.90;;;;;;6280297;22;20073;-75
2024/01/04 04:49:02;;;;;;;4.82;1.00;;;8.20;99.90;;;;;;6280267;22;20016;-75
2024/01/04 04:51:29;;;;;;;5.18;0.88;;;8.20;99.90;;;;;;6254937;22;20023;-74
2024/01/04 04:53:56;;;;;;;4.00;1.10;;;8.20;99.90;;;;;;6280110;22;20019;-75
2024/01/04 04:56:25;;;;;;;3.28;1.00;;;8.20;99.90;;;;;;6280455;22;20015;-76
2024/01/04 04:58:52;;;;;;;2.85;1.00;;;8.20;99.90;;;;;;6305720;22;20019;-75
2024/01/04 05:01:18;;;;;;;4.55;1.20;;;8.20;99.90;;;;;;6254756;22;20031;-75
2024/01/04 05:03:46;;;;;;;3.20;1.20;;;8.20;99.90;;;;;;6254683;22;20019;-75
2024/01/04 05:06:15;;;;;;;3.60;1.30;;;8.30;99.90;;;;;;6305653;22;20015;-75
2024/01/04 05:08:43;;;;;;;7.47;1.55;;;8.30;99.90;;;;;;6254717;22;20020;-77
2024/01/04 05:11:10;;;;;;;6.07;1.50;;;8.30;99.90;;;;;;6280228;22;20065;-76
2024/01/04 05:13:37;;;;;;;5.97;1.80;;;8.20;99.90;;;;;;6279865;22;20026;-76
2024/01/04 05:16:06;;;;;;;5.28;1.83;;;8.20;99.90;;;;;;6279806;22;20031;-77
2024/01/04 05:18:32;;;;;;;3.72;1.60;;;8.10;99.90;;;;;;6279888;22;20457;-76
2024/01/04 05:21:00;;;;;;;3.20;1.10;;;8.10;99.90;;;;;;6254685;22;20027;-77
2024/01/04 05:23:27;;;;;;;3.53;1.10;;;8.00;99.90;;;;;;6307423;22;20068;-76
2024/01/04 05:25:54;;;;;;;3.55;1.27;;;8.10;99.90;;;;;;6280269;22;20441;-76
2024/01/04 05:28:21;;;;;;;3.35;1.10;;;8.00;99.90;;;;;;6254653;22;20026;-77
2024/01/04 05:30:48;;;;;;;2.80;1.05;;;8.00;99.90;;;;;;6254805;22;20019;-77
2024/01/04 05:33:15;;;;;;;2.75;1.08;;;8.00;99.90;;;;;;6254762;22;20020;-76
2024/01/04 05:35:42;;;;;;;4.85;1.15;;;7.90;99.90;;;;;;6306056;22;20022;-77
2024/01/04 05:38:09;;;;;;;3.33;0.80;;;7.90;99.90;;;;;;6280340;22;20045;-76
2024/01/04 05:40:36;;;;;;;2.28;0.80;;;7.90;99.90;;;;;;6254541;22;20026;-77
2024/01/04 05:43:03;;;;;;;2.33;0.60;;;7.90;99.90;;;;;;6254529;22;20047;-76
2024/01/04 05:45:31;;;;;;;2.03;0.50;;;7.90;99.90;;;;;;6280088;22;20065;-76
2024/01/04 05:47:58;;;;;;;1.77;0.50;;;7.90;99.90;;;;;;6280013;22;20015;-76
2024/01/04 05:50:25;;;;;;;1.70;0.60;;;7.90;99.90;;;;;;6279813;22;20353;-76
2024/01/04 05:52:52;;;;;;;3.95;0.80;;;7.90;99.90;;;;;;6280235;22;20497;-76
2024/01/04 05:55:19;;;;;;;2.50;0.65;;;7.90;99.90;;;;;;6254451;22;20027;-76
2024/01/04 05:57:46;;;;;;;3.22;0.50;;;7.90;99.90;;;;;;6305467;22;20102;-76
2024/01/04 06:00:13;;;;;;;1.55;0.47;;;7.90;99.90;;;;;;6307522;22;20084;-76
2024/01/04 06:02:44;;;;;;;2.10;0.65;;;7.90;99.90;;;;;;6280850;22;20027;-76
2024/01/04 06:05:11;;;;;;;1.30;0.50;;;7.90;99.90;;;;;;6279891;22;20016;-76
2024/01/04 06:07:39;;;;;;;3.70;0.75;;;7.90;99.90;;;;;;6254783;22;20019;-76
2024/01/04 06:10:06;;;;;;;1.65;0.60;;;7.90;99.90;;;;;;6279899;22;20023;-76
2024/01/04 06:12:33;;;;;;;2.00;0.73;;;8.00;99.90;;;;;;6318941;22;20080;-76
2024/01/04 06:15:03;;;;;;;2.70;1.02;;;7.90;99.90;;;;;;6284776;22;20095;-76
2024/01/04 06:17:33;;;;;;;2.53;0.50;;;7.90;99.90;;;;;;6285181;22;20387;-76
2024/01/04 06:20:00;;;;;;;3.58;0.60;;;7.90;99.90;;;;;;6311363;22;20023;-76
2024/01/04 06:22:27;;;;;;;2.90;0.60;;;7.90;99.90;;;;;;6286035;22;20448;-78
2024/01/04 06:24:54;;;;;;;1.50;0.68;;;7.90;99.90;;;;;;6286854;22;20460;-78
2024/01/04 06:27:21;;;;;;;1.40;0.60;;;7.90;99.90;;;;;;6286768;22;20025;-78
2024/01/04 06:29:49;;;;;;;1.58;0.60;;;7.90;99.90;;;;;;6286846;22;20387;-78
2024/01/04 06:32:16;;;;;;;2.97;0.90;;;7.90;99.90;;;;;;6286478;22;20367;-77
2024/01/04 06:34:43;;;;;;;3.78;0.90;;;7.90;99.90;;;;;;6312460;22;20019;-78
2024/01/04 06:37:10;;;;;;;3.20;0.98;;;7.90;99.90;;;;;;6312661;22;20023;-77
2024/01/04 06:39:37;;;;;;;3.38;0.98;;;7.90;99.90;;;;;;6287233;22;20025;-77
2024/01/04 06:42:08;;;;;;;2.58;0.70;;;7.90;99.90;;;;;;6287094;22;20368;-77
2024/01/04 06:44:35;;;;;;;2.13;0.60;;;7.90;99.90;;;;;;6312466;22;20036;-77
2024/01/04 06:47:14;;;;;;;1.92;0.60;;;7.90;99.90;;;;;;6314850;22;20019;-77
2024/01/04 06:49:41;;;;;;;3.13;0.88;;;7.90;99.90;;;;;;6286777;22;20026;-77
2024/01/04 06:52:09;;;;;;;2.13;0.85;;;7.90;99.90;;;;;;6286555;22;20108;-77
2024/01/04 06:54:36;;;;;;;4.22;1.30;;;7.90;99.90;;;;;;6286678;22;20056;-78
2024/01/04 06:57:06;;;;;;;3.33;0.95;;;7.90;99.90;;;;;;6286402;22;20406;-77
2024/01/04 06:59:34;;;;;;;2.75;1.15;;;7.90;99.90;;;;;;6261901;22;20030;-76
2024/01/04 07:02:04;;;;;;;3.67;1.15;;;7.90;99.90;;;;;;6261198;22;20353;-77
2024/01/04 07:04:32;;;;;;;3.75;1.63;;;7.90;99.90;;;;;;6286972;22;20015;-76
2024/01/04 07:06:59;;;;;;;2.35;1.23;;;7.90;99.90;;;;;;6285949;22;20021;-76
2024/01/04 07:09:26;;;;;;;2.08;0.90;;;7.90;99.90;;;;;;6286558;22;20026;-76
2024/01/04 07:11:54;;;;;;;3.45;0.80;;;7.90;99.90;;;;;;6260607;22;20038;-77
2024/01/04 07:14:21;;;;;;;3.20;1.02;;;7.90;99.90;;;;;;6286506;22;20037;-76
2024/01/04 07:16:49;;;;;;;4.38;1.20;;;7.90;99.90;;;;;;6260353;22;20067;-76
2024/01/04 07:19:16;;;;;;;3.05;1.20;;;7.80;99.90;;;;;;6339853;22;20019;-76
2024/01/04 07:21:43;;;;;;;2.33;0.98;;;7.90;99.90;;;;;;6287870;22;20023;-76
2024/01/04 07:24:10;;;;;;;3.45;1.10;;;7.80;99.90;;;;;;6296078;22;20046;-76
2024/01/04 07:26:37;;;;;;;2.50;1.08;;;7.90;99.90;;;;;;6287034;22;20025;-76
2024/01/04 07:29:04;;;;;;;3.42;1.25;;;7.80;99.90;;;;;;6262167;22;20019;-76
2024/01/04 07:31:32;;;;;;;2.83;0.95;;;7.80;99.90;;;;;;6261941;22;20063;-76
2024/01/04 07:34:00;;;;;;;5.07;1.65;;;7.80;99.90;;;;;;6286096;22;20015;-76
2024/01/04 07:36:28;;;;;;;2.17;0.93;;;7.80;99.90;;;;;;6286567;22;20448;-76
2024/01/04 07:38:55;;;;;;;3.05;0.80;;;7.80;99.90;;;;;;6286627;22;20018;-76
2024/01/04 07:41:23;;;;;;;2.72;1.20;;;7.80;99.90;;;;;;6286192;22;20042;-76
2024/01/04 07:43:50;;;;;;;5.22;1.73;;;7.80;99.90;;;;;;6285983;22;20019;-76
2024/01/04 07:46:17;;;;;;;4.40;1.83;;;7.90;99.90;;;;;;6286132;22;20107;-77
2024/01/04 07:48:45;;;;;;;3.20;0.90;;;7.90;99.90;;;;;;6286779;22;20069;-76
2024/01/04 07:51:12;;;;;;;3.08;1.20;;;7.90;99.90;;;;;;6285888;22;20326;-76
2024/01/04 07:53:40;;;;;;;2.75;0.98;;;7.90;99.90;;;;;;6285895;22;20018;-77
2024/01/04 07:56:07;;;;;;;1.80;0.63;;;7.90;99.90;;;;;;6285946;22;20027;-77
2024/01/04 07:58:34;;;;;;;1.98;0.93;;;7.90;99.90;;;;;;6285571;22;20050;-77
2024/01/04 08:01:01;;;;;;;2.20;0.77;;;7.90;99.90;;;;;;6286390;22;20022;-76
2024/01/04 08:03:30;;;;;;;1.50;0.60;;;7.90;99.90;;;;;;6285994;22;20029;-77
2024/01/04 08:05:58;;;;;;;2.63;1.10;;;7.90;99.90;;;;;;6285869;22;20460;-76
2024/01/04 08:08:28;;;;;;;2.38;0.98;;;7.80;99.90;;;;;;6285735;22;20022;-76
2024/01/04 08:10:55;;;;;;;2.65;1.00;;;7.80;99.90;;;;;;6286535;22;20018;-76
2024/01/04 08:13:25;;;;;;;2.10;0.77;;;7.80;99.90;;;;;;6285185;22;20026;-76
2024/01/04 08:15:52;;;;;;;2.75;1.00;;;7.80;99.90;;;;;;6260415;22;20023;-76
2024/01/04 08:18:22;;;;;;;1.95;0.73;;;7.80;99.90;;;;;;6285853;22;20048;-76
2024/01/04 08:20:50;;;;;;;2.72;0.70;;;7.80;99.90;;;;;;6285625;22;20528;-76
2024/01/04 08:23:17;;;;;;;2.10;0.80;;;7.80;99.90;;;;;;6260372;22;20072;-75
2024/01/04 08:25:44;;;;;;;2.47;1.08;;;7.80;99.90;;;;;;6285309;22;20019;-75
2024/01/04 08:28:12;;;;;;;2.47;1.20;;;7.80;99.90;;;;;;6260790;22;20045;-75
2024/01/04 08:30:39;;;;;;;2.90;1.00;;;7.90;99.90;;;;;;6285509;22;20022;-75
2024/01/04 08:33:06;;;;;;;2.13;0.77;;;7.90;99.90;;;;;;6285687;22;20038;-76
2024/01/04 08:35:34;;;;;;;2.72;1.10;;;7.90;99.90;;;;;;6285456;22;20030;-76
2024/01/04 08:38:01;;;;;;;2.53;1.02;;;7.90;99.90;;;;;;6285250;22;20097;-75
2024/01/04 08:40:29;;;;;;;2.08;0.98;;;8.00;99.90;;;;;;6311020;22;20056;-75
2024/01/04 08:42:56;;;;;;;1.75;0.70;;;8.00;99.90;;;;;;6260387;22;20023;-76
2024/01/04 08:45:25;;;;;;;1.63;0.77;;;8.00;99.90;;;;;;6310793;22;20015;-76
2024/01/04 08:47:52;;;;;;;1.77;0.63;;;7.90;99.90;;;;;;6285109;22;20025;-76
2024/01/04 08:50:19;;;;;;;1.90;0.70;;;7.90;99.90;;;;;;6285530;22;20036;-75
2024/01/04 08:52:47;;;;;;;1.90;0.73;;;7.90;99.90;;;;;;6285671;22;20116;-76
2024/01/04 08:55:14;;;;;;;2.58;1.05;;;8.00;99.90;;;;;;6285147;22;20022;-77
2024/01/04 08:57:41;;;;;;;2.63;0.85;;;8.00;99.90;;;;;;6285747;22;20022;-76
2024/01/04 09:00:10;;;;;;;3.45;1.55;;;8.00;99.90;;;;;;6285487;22;20026;-76
2024/01/04 09:02:37;;;;;;;3.60;0.98;;;8.00;99.90;;;;;;6285878;22;20022;-77
2024/01/04 09:05:05;;;;;;;2.40;1.00;;;8.00;99.90;;;;;;6285030;22;20356;-76
2024/01/04 09:07:32;;;;;;;4.30;1.13;;;8.10;99.90;;;;;;6310678;22;20019;-76
2024/01/04 09:09:59;;;;;;;3.85;0.98;;;8.10;99.90;;;;;;6285375;22;20465;-75
2024/01/04 09:12:27;;;;;;;3.83;1.45;;;8.10;99.90;;;;;;6285068;22;20026;-76
2024/01/04 09:14:54;;;;;;;3.25;1.38;;;8.10;99.90;;;;;;6285396;22;20426;-76
2024/01/04 09:17:21;;;;;;;2.92;1.10;;;8.10;99.90;;;;;;6285550;22;20014;-76
2024/01/04 09:19:49;;;;;;;4.28;1.30;;;8.10;99.90;;;;;;6310743;22;20519;-76
2024/01/04 09:22:17;;;;;;;4.00;1.38;;;8.10;99.90;;;;;;6311459;22;20022;-76
2024/01/04 09:24:44;;;;;;;2.72;1.23;;;8.00;99.90;;;;;;6285290;22;20041;-76
2024/01/04 09:27:12;;;;;;;2.88;1.38;;;8.00;99.90;;;;;;6285083;22;20021;-76
2024/01/04 09:29:41;;;;;;;3.83;0.90;;;8.00;99.90;;;;;;6285255;22;20391;-76
2024/01/04 09:32:08;;;;;;;2.33;0.73;;;8.10;99.90;;;;;;6285226;22;20076;-77
2024/01/04 09:34:36;;;;;;;2.20;1.00;;;8.10;99.90;;;;;;6285290;22;20019;-76
2024/01/04 09:37:03;;;;;;;3.63;1.25;;;8.20;99.90;;;;;;6285500;22;20072;-75
2024/01/04 09:39:30;;;;;;;2.92;1.10;;;8.20;99.90;;;;;;6285077;22;20030;-76
2024/01/04 09:41:59;;;;;;;2.33;1.00;;;8.20;99.90;;;;;;6310453;22;20022;-76
2024/01/04 09:44:26;;;;;;;2.60;0.90;;;8.20;99.90;;;;;;6285196;22;20019;-76
2024/01/04 09:46:57;;;;;;;1.83;1.02;;;8.30;99.90;;;;;;6310419;22;20428;-76
2024/01/04 09:49:28;;;;;;;3.03;1.20;;;8.30;99.90;;;;;;6310420;22;20042;-76
2024/01/04 09:51:56;;;;;;;3.58;1.27;;;8.40;99.90;;;;;;6285322;22;20079;-75
2024/01/04 09:54:24;;;;;;;3.28;1.00;;;8.40;99.90;;;;;;6285005;22;20019;-76
2024/01/04 09:56:55;;;;;;;4.68;1.58;;;8.40;99.90;;;;;;6286318;22;20019;-75
2024/01/04 09:59:23;;;;;;;3.28;1.27;;;8.50;99.90;;;;;;6312766;22;20049;-76
2024/01/04 10:01:50;;;;;;;2.80;1.40;;;8.40;99.90;;;;;;6286892;22;20105;-80
2024/01/04 10:04:17;;;;;;;5.18;2.05;;;8.40;99.90;;;;;;6287000;22;20015;-80
2024/01/04 10:06:45;;;;;;;4.00;2.25;;;8.40;99.90;;;;;;6312529;22;20034;-80
2024/01/04 10:09:19;;;;;;;7.15;2.90;;;8.40;99.90;;;;;;6340172;22;20098;-82
2024/01/04 10:12:05;;;;;;;5.15;2.88;;;8.50;99.90;;;;;;6286617;22;20026;-81
2024/01/04 10:14:33;;;;;;;4.82;2.33;;;8.40;99.90;;;;;;6287125;22;20026;-82
2024/01/04 10:17:02;;;;;;;5.68;2.53;;;8.40;99.90;;;;;;6313095;22;20018;-81
2024/01/04 10:19:30;;;;;;;5.25;2.15;;;8.40;99.90;;;;;;6311060;22;20072;-81
2024/01/04 10:22:03;;;;;;;4.95;2.50;;;8.40;99.90;;;;;;6287651;22;20019;-82
2024/01/04 10:24:37;;;;;;;3.63;1.75;;;8.40;99.90;;;;;;6312439;22;20046;-81
2024/01/04 10:27:08;;;;;;;4.00;1.67;;;8.40;99.90;;;;;;6312901;22;20329;-82
2024/01/04 10:29:37;;;;;;;5.03;2.30;;;8.40;99.90;;;;;;6287291;22;20396;-80
2024/01/04 10:32:12;;;;;;;4.75;2.30;;;8.40;99.90;;;;;;6340014;22;20437;-81
2024/01/04 10:34:40;;;;;;;5.85;2.58;;;8.40;99.90;;;;;;6340052;22;20437;-81
2024/01/04 10:37:17;;;;;;;4.78;2.05;;;8.30;99.90;;;;;;6339969;22;20021;-82
2024/01/04 10:40:09;;;;;;;6.60;2.70;;;8.40;99.90;;;;;;6262472;22;20449;-82
2024/01/04 10:42:37;;;;;;;7.35;3.10;;;8.40;99.90;;;;;;6313816;22;20045;-90
2024/01/04 10:45:04;;;;;;;5.07;2.55;;;8.40;99.90;;;;;;6288171;22;20468;-88
2024/01/04 10:47:31;;;;;;;4.28;2.45;;;8.40;99.90;;;;;;6288697;22;20437;-88
2024/01/04 10:49:59;;;;;;;4.47;2.28;;;8.40;99.90;;;;;;6288173;22;20102;-88
2024/01/04 10:52:31;;;;;;;4.30;2.40;;;8.50;99.90;;;;;;6263392;22;20027;-87
2024/01/04 10:55:00;;;;;;;4.10;2.08;;;8.50;99.90;;;;;;6288355;22;20071;-86
2024/01/04 10:57:31;;;;;;;4.68;2.13;;;8.50;99.90;;;;;;6263358;22;20031;-87
2024/01/04 11:00:01;;;;;;;4.88;3.17;;;8.50;99.90;;;;;;6287933;22;20097;-87
2024/01/04 11:02:31;;;;;;;3.67;2.10;;;8.40;99.90;;;;;;6313619;22;20048;-87
2024/01/04 11:05:03;;;;;;;3.97;1.90;;;8.40;99.90;;;;;;6288815;22;20018;-88
2024/01/04 11:07:31;;;;;;;4.60;2.00;;;8.50;99.90;;;;;;6287443;22;20040;-87
2024/01/04 11:09:58;;;;;;;2.95;1.73;;;8.50;99.90;;;;;;6289278;22;20010;-85
2024/01/04 11:12:29;;;;;;;3.75;1.92;;;8.60;99.90;;;;;;6311670;22;20026;-86
2024/01/04 11:14:56;;;;;;;3.67;1.77;;;8.60;99.90;;;;;;6312915;22;20035;-86
2024/01/04 11:17:44;;;;;;;3.38;2.17;;;8.60;99.90;;;;;;6302334;22;20015;-86
2024/01/04 11:20:26;;;;;;;4.53;2.13;;;8.60;99.90;;;;;;6314086;22;20011;-86
2024/01/04 11:23:09;;;;;;;5.00;2.13;;;8.70;99.90;;;;;;6288922;22;20019;-85
2024/01/04 11:26:01;;;;;;;3.67;1.83;;;8.60;99.90;;;;;;6340261;22;20015;-87
2024/01/04 11:28:28;;;;;;;2.45;1.13;;;8.60;99.90;;;;;;6287030;22;20102;-87
2024/01/04 11:31:06;;;;;;;3.78;1.58;;;8.60;99.90;;;;;;6266842;22;20033;-85
2024/01/04 11:33:40;;;;;;;3.25;1.63;;;8.70;99.90;;;;;;6286975;22;20030;-83
2024/01/04 11:36:09;;;;;;;8.00;3.38;;;8.80;99.90;;;;;;6312332;22;20385;-84
2024/01/04 11:38:37;;;;;;;4.72;1.38;;;8.80;99.90;;;;;;6287052;22;20015;-84
2024/01/04 11:41:04;;;;;;;3.15;1.38;;;8.80;99.90;;;;;;6261535;22;20076;-83
2024/01/04 11:43:39;;;;;;;3.80;1.42;;;8.90;99.90;;;;;;6286539;22;20030;-84
2024/01/04 11:46:22;;;;;;;3.45;1.40;;;9.00;99.90;;;;;;6311661;22;20050;-84
2024/01/04 11:49:01;;;;;;;4.55;1.90;;;9.00;99.90;;;;;;6286435;22;20045;-82
2024/01/04 11:51:32;;;;;;;3.45;1.80;;;9.00;99.90;;;;;;6339165;22;20015;-82
2024/01/04 11:53:59;;;;;;;5.05;2.05;;;8.90;99.90;;;;;;6311808;22;20019;-83
2024/01/04 11:56:27;;;;;;;3.03;1.33;;;8.90;99.90;;;;;;6312072;22;20047;-83
2024/01/04 11:59:05;;;;;;;3.25;1.60;;;8.90;99.90;;;;;;6311348;22;20023;-83
2024/01/04 12:01:33;;;;;;;6.07;1.30;;;9.00;99.90;;;;;;6285874;22;20080;-83
2024/01/04 12:04:14;;;;;;;3.38;1.67;;;9.00;99.90;;;;;;6286697;22;20019;-87
2024/01/04 12:06:43;;;;;;;4.15;1.80;;;9.00;99.90;;;;;;6339179;22;20017;-79
2024/01/04 12:09:17;;;;;;;4.35;1.70;;;9.00;99.90;;;;;;6286494;22;20075;-87
2024/01/04 12:11:55;;;;;;;4.25;2.00;;;9.00;99.90;;;;;;6285657;22;20022;-80
2024/01/04 12:14:25;;;;;;;5.22;2.30;;;9.00;99.90;;;;;;6312000;22;20027;-88
2024/01/04 12:17:04;;;;;;;3.92;2.33;;;8.90;99.90;;;;;;6290920;22;20030;-80
2024/01/04 12:19:34;;;;;;;6.15;2.28;;;9.00;99.90;;;;;;6339571;22;20018;-87
2024/01/04 12:22:01;;;;;;;3.75;1.85;;;9.00;99.90;;;;;;6286057;22;20373;-82
2024/01/04 12:24:30;;;;;;;5.03;2.20;;;9.00;99.90;;;;;;6311688;22;20023;-79
2024/01/04 12:26:57;;;;;;;4.53;2.90;;;9.00;99.90;;;;;;6285605;22;20015;-79
2024/01/04 12:29:25;;;;;;;5.30;2.63;;;9.00;99.90;;;;;;6285801;22;20163;-79
2024/01/04 12:31:52;;;;;;;3.72;1.67;;;9.00;99.90;;;;;;6311812;22;20007;-84
2024/01/04 12:34:19;;;;;;;4.65;2.30;;;9.00;99.90;;;;;;6286533;22;20057;-85
2024/01/04 12:36:46;;;;;;;4.40;2.13;;;9.00;99.90;;;;;;6260922;22;20169;-80
2024/01/04 12:39:16;;;;;;;4.88;2.22;;;9.00;99.90;;;;;;6287386;22;20030;-82
2024/01/04 12:41:48;;;;;;;4.40;2.17;;;9.00;99.90;;;;;;6285972;22;20106;-83
2024/01/04 12:44:17;;;;;;;4.32;2.30;;;9.00;99.90;;;;;;6288318;22;20021;-85
2024/01/04 12:46:47;;;;;;;5.85;2.33;;;9.00;99.90;;;;;;6286081;22;20018;-84
2024/01/04 12:49:15;;;;;;;4.22;2.08;;;9.00;99.90;;;;;;6285526;22;20023;-84
2024/01/04 12:51:48;;;;;;;5.03;2.50;;;9.00;99.90;;;;;;6288696;22;20507;-83
2024/01/04 12:54:15;;;;;;;4.85;2.25;;;9.00;99.90;;;;;;6285685;22;20391;-83
2024/01/04 12:56:42;;;;;;;4.15;2.08;;;9.00;99.90;;;;;;6286322;22;20029;-83
2024/01/04 12:59:11;;;;;;;3.58;2.38;;;9.00;99.90;;;;;;6285686;22;20019;-82
2024/01/04 13:01:38;;;;;;;3.28;1.60;;;8.90;99.90;;;;;;6285675;22;20412;-83
2024/01/04 13:04:07;;;;;;;2.85;1.25;;;8.90;99.90;;;;;;6311374;22;20023;-80